sensor_id;sensor_type;location;lat;lon;timestamp;pressure;altitude;pressure_sealevel;temperature;humidity
58622;BME280;44389;51.578;5.456;2022-12-29T00:01:23;99975.69;;;9.49;100.00
58622;BME280;44389;51.578;5.456;2022-12-29T00:03:48;99970.59;;;9.50;100.00
58622;BME280;44389;51.578;5.456;2022-12-29T00:06:13;99975.75;;;9.50;100.00
58622;BME280;44389;51.578;5.456;2022-12-29T00:08:39;99968.03;;;9.50;100.00
58622;BME280;44389;51.578;5.456;2022-12-29T00:11:15;99965.38;;;9.47;100.00
58622;BME280;44389;51.578;5.456;2022-12-29T00:13:41;99969.59;;;9.44;100.00
58622;BME280;44389;51.578;5.456;2022-12-29T00:16:26;99964.41;;;9.42;100.00
58622;BME280;44389;51.578;5.456;2022-12-29T00:18:51;99948.06;;;9.38;100.00
58622;BME280;44389;51.578;5.456;2022-12-29T00:21:19;99944.59;;;9.35;100.00
58622;BME280;44389;51.578;5.456;2022-12-29T00:24:04;99936.78;;;9.32;100.00
58622;BME280;44389;51.578;5.456;2022-12-29T00:26:55;99940.13;;;9.28;100.00
58622;BME280;44389;51.578;5.456;2022-12-29T00:29:40;99942.56;;;9.21;100.00
58622;BME280;44389;51.578;5.456;2022-12-29T00:32:23;99944.13;;;9.13;100.00
58622;BME280;44389;51.578;5.456;2022-12-29T00:35:09;99948.34;;;9.10;100.00
58622;BME280;44389;51.578;5.456;2022-12-29T00:37:41;99952.53;;;9.06;100.00
58622;BME280;44389;51.578;5.456;2022-12-29T00:40:26;99938.66;;;8.98;100.00
58622;BME280;44389;51.578;5.456;2022-12-29T00:43:10;99930.81;;;8.92;100.00
58622;BME280;44389;51.578;5.456;2022-12-29T00:45:54;99935.78;;;8.84;100.00
58622;BME280;44389;51.578;5.456;2022-12-29T00:48:19;99915.19;;;8.81;100.00
58622;BME280;44389;51.578;5.456;2022-12-29T00:51:05;99917.66;;;8.76;100.00
58622;BME280;44389;51.578;5.456;2022-12-29T00:53:30;99915.03;;;8.73;100.00
58622;BME280;44389;51.578;5.456;2022-12-29T00:55:56;99912.44;;;8.73;100.00
58622;BME280;44389;51.578;5.456;2022-12-29T00:58:21;99907.22;;;8.70;100.00
58622;BME280;44389;51.578;5.456;2022-12-29T01:00:46;99916.66;;;8.69;100.00
58622;BME280;44389;51.578;5.456;2022-12-29T01:03:11;99917.50;;;8.70;100.00
58622;BME280;44389;51.578;5.456;2022-12-29T01:05:37;99906.38;;;8.69;100.00
58622;BME280;44389;51.578;5.456;2022-12-29T01:08:02;99883.25;;;8.69;100.00
58622;BME280;44389;51.578;5.456;2022-12-29T01:10:28;99890.94;;;8.68;100.00
58622;BME280;44389;51.578;5.456;2022-12-29T01:12:53;99894.31;;;8.67;100.00
58622;BME280;44389;51.578;5.456;2022-12-29T01:15:18;99882.41;;;8.70;100.00
58622;BME280;44389;51.578;5.456;2022-12-29T01:17:44;99879.94;;;8.75;100.00
58622;BME280;44389;51.578;5.456;2022-12-29T01:20:10;99886.94;;;8.82;100.00
58622;BME280;44389;51.578;5.456;2022-12-29T01:22:36;99871.59;;;8.87;100.00
58622;BME280;44389;51.578;5.456;2022-12-29T01:25:01;99880.34;;;8.94;100.00
58622;BME280;44389;51.578;5.456;2022-12-29T01:27:26;99871.06;;;9.02;100.00
58622;BME280;44389;51.578;5.456;2022-12-29T01:29:52;99880.56;;;9.06;100.00
58622;BME280;44389;51.578;5.456;2022-12-29T01:32:17;99875.53;;;9.11;100.00
58622;BME280;44389;51.578;5.456;2022-12-29T01:34:42;99867.84;;;9.12;100.00
58622;BME280;44389;51.578;5.456;2022-12-29T01:37:08;99871.25;;;9.11;100.00
58622;BME280;44389;51.578;5.456;2022-12-29T01:39:33;99863.66;;;9.17;100.00
58622;BME280;44389;51.578;5.456;2022-12-29T01:41:58;99857.75;;;9.21;100.00
58622;BME280;44389;51.578;5.456;2022-12-29T01:44:53;99862.97;;;9.26;100.00
58622;BME280;44389;51.578;5.456;2022-12-29T01:47:26;99871.66;;;9.33;100.00
58622;BME280;44389;51.578;5.456;2022-12-29T01:49:57;99852.84;;;9.35;100.00
58622;BME280;44389;51.578;5.456;2022-12-29T01:52:24;99872.66;;;9.39;100.00
58622;BME280;44389;51.578;5.456;2022-12-29T01:54:54;99857.31;;;9.44;100.00
58622;BME280;44389;51.578;5.456;2022-12-29T01:57:27;99867.75;;;9.53;100.00
58622;BME280;44389;51.578;5.456;2022-12-29T02:00:00;99862.66;;;9.56;100.00
58622;BME280;44389;51.578;5.456;2022-12-29T02:02:27;99869.56;;;9.59;100.00
58622;BME280;44389;51.578;5.456;2022-12-29T02:04:53;99872.25;;;9.65;100.00
58622;BME280;44389;51.578;5.456;2022-12-29T02:07:22;99878.31;;;9.67;100.00
58622;BME280;44389;51.578;5.456;2022-12-29T02:09:49;99861.22;;;9.71;100.00
58622;BME280;44389;51.578;5.456;2022-12-29T02:12:16;99866.41;;;9.74;100.00
58622;BME280;44389;51.578;5.456;2022-12-29T02:14:42;99868.25;;;9.81;100.00
58622;BME280;44389;51.578;5.456;2022-12-29T02:20:05;99859.66;;;9.82;100.00
58622;BME280;44389;51.578;5.456;2022-12-29T02:23:12;99857.19;;;9.87;100.00
58622;BME280;44389;51.578;5.456;2022-12-29T02:26:20;99876.97;;;9.89;100.00
58622;BME280;44389;51.578;5.456;2022-12-29T02:29:08;99877.06;;;9.96;100.00
58622;BME280;44389;51.578;5.456;2022-12-29T02:37:03;99859.06;;;9.97;100.00
58622;BME280;44389;51.578;5.456;2022-12-29T02:39:41;99857.41;;;9.99;100.00
58622;BME280;44389;51.578;5.456;2022-12-29T02:45:11;99861.63;;;9.96;100.00
58622;BME280;44389;51.578;5.456;2022-12-29T02:48:04;99847.06;;;9.98;100.00
58622;BME280;44389;51.578;5.456;2022-12-29T02:50:36;99859.88;;;9.93;100.00
58622;BME280;44389;51.578;5.456;2022-12-29T02:53:06;99863.25;;;9.91;100.00
58622;BME280;44389;51.578;5.456;2022-12-29T02:55:32;99854.63;;;9.88;100.00
58622;BME280;44389;51.578;5.456;2022-12-29T02:58:18;99850.31;;;9.86;100.00
58622;BME280;44389;51.578;5.456;2022-12-29T03:04:57;99838.22;;;9.80;100.00
58622;BME280;44389;51.578;5.456;2022-12-29T03:07:52;99833.81;;;9.75;100.00
58622;BME280;44389;51.578;5.456;2022-12-29T03:12:43;99835.41;;;9.68;100.00
58622;BME280;44389;51.578;5.456;2022-12-29T03:15:36;99834.47;;;9.63;100.00
58622;BME280;44389;51.578;5.456;2022-12-29T03:18:28;99839.59;;;9.61;100.00
58622;BME280;44389;51.578;5.456;2022-12-29T03:21:03;99830.16;;;9.62;100.00
58622;BME280;44389;51.578;5.456;2022-12-29T03:23:31;99838.78;;;9.64;100.00
58622;BME280;44389;51.578;5.456;2022-12-29T03:26:01;99832.81;;;9.66;100.00
58622;BME280;44389;51.578;5.456;2022-12-29T03:28:36;99843.97;;;9.67;100.00
58622;BME280;44389;51.578;5.456;2022-12-29T03:31:04;99832.00;;;9.69;100.00
58622;BME280;44389;51.578;5.456;2022-12-29T03:33:32;99818.25;;;9.67;100.00
58622;BME280;44389;51.578;5.456;2022-12-29T03:36:01;99813.06;;;9.64;100.00
58622;BME280;44389;51.578;5.456;2022-12-29T03:38:47;99828.50;;;9.64;100.00
58622;BME280;44389;51.578;5.456;2022-12-29T03:41:18;99819.88;;;9.62;100.00
58622;BME280;44389;51.578;5.456;2022-12-29T03:43:45;99830.91;;;9.54;100.00
58622;BME280;44389;51.578;5.456;2022-12-29T03:46:11;99847.16;;;9.50;100.00
58622;BME280;44389;51.578;5.456;2022-12-29T03:48:36;99835.00;;;9.43;100.00
58622;BME280;44389;51.578;5.456;2022-12-29T03:51:01;99836.56;;;9.35;100.00
58622;BME280;44389;51.578;5.456;2022-12-29T03:53:26;99826.19;;;9.30;100.00
58622;BME280;44389;51.578;5.456;2022-12-29T03:55:52;99828.72;;;9.27;100.00
58622;BME280;44389;51.578;5.456;2022-12-29T03:58:17;99842.44;;;9.29;100.00
58622;BME280;44389;51.578;5.456;2022-12-29T04:00:42;99828.78;;;9.32;100.00
58622;BME280;44389;51.578;5.456;2022-12-29T04:03:07;99836.47;;;9.30;100.00
58622;BME280;44389;51.578;5.456;2022-12-29T04:05:33;99850.09;;;9.25;100.00
58622;BME280;44389;51.578;5.456;2022-12-29T04:07:58;99858.56;;;9.20;100.00
58622;BME280;44389;51.578;5.456;2022-12-29T04:10:24;99854.22;;;9.16;100.00
58622;BME280;44389;51.578;5.456;2022-12-29T04:12:49;99846.44;;;9.13;100.00
58622;BME280;44389;51.578;5.456;2022-12-29T04:15:14;99824.91;;;9.06;100.00
58622;BME280;44389;51.578;5.456;2022-12-29T04:17:40;99842.66;;;8.96;100.00
58622;BME280;44389;51.578;5.456;2022-12-29T04:20:05;99848.44;;;8.84;100.00
58622;BME280;44389;51.578;5.456;2022-12-29T04:22:58;99861.13;;;8.76;100.00
58622;BME280;44389;51.578;5.456;2022-12-29T04:25:23;99866.13;;;8.70;100.00
58622;BME280;44389;51.578;5.456;2022-12-29T04:27:48;99867.66;;;8.62;100.00
58622;BME280;44389;51.578;5.456;2022-12-29T04:30:14;99855.59;;;8.57;100.00
58622;BME280;44389;51.578;5.456;2022-12-29T04:32:39;99850.31;;;8.51;100.00
58622;BME280;44389;51.578;5.456;2022-12-29T04:35:04;99858.88;;;8.52;100.00
58622;BME280;44389;51.578;5.456;2022-12-29T04:37:30;99867.34;;;8.46;100.00
58622;BME280;44389;51.578;5.456;2022-12-29T04:39:55;99858.81;;;8.47;100.00
58622;BME280;44389;51.578;5.456;2022-12-29T04:42:21;99872.53;;;8.49;100.00
58622;BME280;44389;51.578;5.456;2022-12-29T04:44:46;99878.47;;;8.47;100.00
58622;BME280;44389;51.578;5.456;2022-12-29T04:47:11;99868.09;;;8.44;100.00
58622;BME280;44389;51.578;5.456;2022-12-29T04:49:37;99872.25;;;8.38;100.00
58622;BME280;44389;51.578;5.456;2022-12-29T04:52:02;99877.44;;;8.40;100.00
58622;BME280;44389;51.578;5.456;2022-12-29T04:54:27;99879.34;;;8.47;100.00
58622;BME280;44389;51.578;5.456;2022-12-29T04:56:52;99897.19;;;8.44;100.00
58622;BME280;44389;51.578;5.456;2022-12-29T04:59:18;99893.94;;;8.48;100.00
58622;BME280;44389;51.578;5.456;2022-12-29T05:01:43;99910.94;;;8.45;100.00
58622;BME280;44389;51.578;5.456;2022-12-29T05:04:08;99901.63;;;8.48;100.00
58622;BME280;44389;51.578;5.456;2022-12-29T05:06:33;99905.84;;;8.46;100.00
58622;BME280;44389;51.578;5.456;2022-12-29T05:08:59;99907.47;;;8.44;100.00
58622;BME280;44389;51.578;5.456;2022-12-29T05:11:24;99913.34;;;8.38;100.00
58622;BME280;44389;51.578;5.456;2022-12-29T05:13:49;99913.31;;;8.37;100.00
58622;BME280;44389;51.578;5.456;2022-12-29T05:16:14;99919.44;;;8.42;100.00
58622;BME280;44389;51.578;5.456;2022-12-29T05:18:40;99921.06;;;8.40;100.00
58622;BME280;44389;51.578;5.456;2022-12-29T05:21:05;99927.97;;;8.43;100.00
58622;BME280;44389;51.578;5.456;2022-12-29T05:23:30;99927.03;;;8.39;100.00
58622;BME280;44389;51.578;5.456;2022-12-29T05:25:56;99929.72;;;8.44;100.00
58622;BME280;44389;51.578;5.456;2022-12-29T05:28:21;99939.22;;;8.46;100.00
58622;BME280;44389;51.578;5.456;2022-12-29T05:30:50;99930.06;;;8.56;100.00
58622;BME280;44389;51.578;5.456;2022-12-29T05:33:17;99938.75;;;8.63;100.00
58622;BME280;44389;51.578;5.456;2022-12-29T05:35:42;99950.00;;;8.68;100.00
58622;BME280;44389;51.578;5.456;2022-12-29T05:38:07;99936.34;;;8.69;100.00
58622;BME280;44389;51.578;5.456;2022-12-29T05:40:33;99948.38;;;8.71;100.00
58622;BME280;44389;51.578;5.456;2022-12-29T05:42:58;99952.59;;;8.69;100.00
58622;BME280;44389;51.578;5.456;2022-12-29T05:45:23;99961.22;;;8.71;100.00
58622;BME280;44389;51.578;5.456;2022-12-29T05:47:49;99956.97;;;8.73;100.00
58622;BME280;44389;51.578;5.456;2022-12-29T05:50:14;99953.56;;;8.73;100.00
58622;BME280;44389;51.578;5.456;2022-12-29T05:52:39;99955.41;;;8.80;100.00
58622;BME280;44389;51.578;5.456;2022-12-29T05:55:05;99966.63;;;8.84;99.91
58622;BME280;44389;51.578;5.456;2022-12-29T05:57:30;99958.09;;;8.85;99.84
58622;BME280;44389;51.578;5.456;2022-12-29T05:59:56;99964.91;;;8.84;99.70
58622;BME280;44389;51.578;5.456;2022-12-29T06:02:21;99972.63;;;8.84;99.34
58622;BME280;44389;51.578;5.456;2022-12-29T06:04:46;99969.31;;;8.88;98.68
58622;BME280;44389;51.578;5.456;2022-12-29T06:07:11;99967.72;;;8.94;97.88
58622;BME280;44389;51.578;5.456;2022-12-29T06:09:37;99971.16;;;8.96;97.02
58622;BME280;44389;51.578;5.456;2022-12-29T06:12:02;99974.66;;;8.98;96.50
58622;BME280;44389;51.578;5.456;2022-12-29T06:14:27;99963.53;;;8.99;95.79
58622;BME280;44389;51.578;5.456;2022-12-29T06:16:53;99966.13;;;8.99;96.58
58622;BME280;44389;51.578;5.456;2022-12-29T06:19:18;99964.41;;;8.99;96.41
58622;BME280;44389;51.578;5.456;2022-12-29T06:21:43;99966.94;;;8.98;95.88
58622;BME280;44389;51.578;5.456;2022-12-29T06:24:09;99967.78;;;8.97;96.11
58622;BME280;44389;51.578;5.456;2022-12-29T06:26:36;99953.19;;;8.96;95.66
58622;BME280;44389;51.578;5.456;2022-12-29T06:29:01;99947.25;;;9.00;94.73
58622;BME280;44389;51.578;5.456;2022-12-29T06:31:28;99947.25;;;9.00;94.81
58622;BME280;44389;51.578;5.456;2022-12-29T06:33:53;99948.16;;;9.00;94.68
58622;BME280;44389;51.578;5.456;2022-12-29T06:36:18;99951.44;;;8.95;95.03
58622;BME280;44389;51.578;5.456;2022-12-29T06:38:43;99937.72;;;8.94;94.62
58622;BME280;44389;51.578;5.456;2022-12-29T06:41:09;99947.16;;;8.94;94.47
58622;BME280;44389;51.578;5.456;2022-12-29T06:43:34;99947.06;;;8.90;94.93
58622;BME280;44389;51.578;5.456;2022-12-29T06:46:03;99950.59;;;8.96;94.09
58622;BME280;44389;51.578;5.456;2022-12-29T06:48:29;99950.53;;;8.91;94.72
58622;BME280;44389;51.578;5.456;2022-12-29T06:50:54;99944.50;;;8.90;94.67
58622;BME280;44389;51.578;5.456;2022-12-29T06:53:19;99954.81;;;8.92;94.39
58622;BME280;44389;51.578;5.456;2022-12-29T06:55:45;99950.56;;;8.93;94.22
58622;BME280;44389;51.578;5.456;2022-12-29T06:58:10;99952.25;;;8.92;94.58
58622;BME280;44389;51.578;5.456;2022-12-29T07:00:35;99945.31;;;8.89;94.91
58622;BME280;44389;51.578;5.456;2022-12-29T07:03:00;99953.13;;;8.93;94.45
58622;BME280;44389;51.578;5.456;2022-12-29T07:05:26;99953.94;;;8.92;94.71
58622;BME280;44389;51.578;5.456;2022-12-29T07:07:53;99959.22;;;8.98;94.06
58622;BME280;44389;51.578;5.456;2022-12-29T07:10:18;99959.28;;;9.01;94.00
58622;BME280;44389;51.578;5.456;2022-12-29T07:12:44;99967.97;;;9.06;93.56
58622;BME280;44389;51.578;5.456;2022-12-29T07:15:09;99961.13;;;9.06;93.39
58622;BME280;44389;51.578;5.456;2022-12-29T07:17:35;99968.84;;;9.06;92.80
58622;BME280;44389;51.578;5.456;2022-12-29T07:20:00;99980.00;;;9.07;92.30
58622;BME280;44389;51.578;5.456;2022-12-29T07:22:25;99977.38;;;9.05;92.03
58622;BME280;44389;51.578;5.456;2022-12-29T07:24:51;100010.69;;;9.01;92.52
58622;BME280;44389;51.578;5.456;2022-12-29T07:27:16;99998.91;;;9.11;90.37
58622;BME280;44389;51.578;5.456;2022-12-29T07:29:41;99992.16;;;9.14;89.56
58622;BME280;44389;51.578;5.456;2022-12-29T07:32:06;99991.28;;;9.15;89.38
58622;BME280;44389;51.578;5.456;2022-12-29T07:34:32;100002.34;;;9.11;89.75
58622;BME280;44389;51.578;5.456;2022-12-29T07:36:57;100015.97;;;9.07;89.14
58622;BME280;44389;51.578;5.456;2022-12-29T07:39:22;100000.34;;;8.98;89.25
58622;BME280;44389;51.578;5.456;2022-12-29T07:41:47;100015.69;;;8.95;89.05
58622;BME280;44389;51.578;5.456;2022-12-29T07:44:13;100010.47;;;8.90;89.29
58622;BME280;44389;51.578;5.456;2022-12-29T07:46:38;100015.63;;;8.92;87.73
58622;BME280;44389;51.578;5.456;2022-12-29T07:49:03;99997.78;;;8.98;87.14
58622;BME280;44389;51.578;5.456;2022-12-29T07:51:29;100008.94;;;9.00;87.41
58622;BME280;44389;51.578;5.456;2022-12-29T07:53:54;100012.44;;;9.02;87.75
58622;BME280;44389;51.578;5.456;2022-12-29T07:56:19;100021.84;;;9.01;88.26
58622;BME280;44389;51.578;5.456;2022-12-29T07:58:44;100027.84;;;9.02;87.61
58622;BME280;44389;51.578;5.456;2022-12-29T08:01:10;100024.44;;;9.03;87.30
58622;BME280;44389;51.578;5.456;2022-12-29T08:03:35;100017.63;;;9.05;87.81
58622;BME280;44389;51.578;5.456;2022-12-29T08:06:01;100031.34;;;9.04;88.12
58622;BME280;44389;51.578;5.456;2022-12-29T08:08:26;100026.91;;;8.98;88.73
58622;BME280;44389;51.578;5.456;2022-12-29T08:10:52;100031.19;;;8.98;88.61
58622;BME280;44389;51.578;5.456;2022-12-29T08:13:17;100030.28;;;8.96;89.10
58622;BME280;44389;51.578;5.456;2022-12-29T08:15:42;100030.28;;;8.96;89.71
58622;BME280;44389;51.578;5.456;2022-12-29T08:18:08;100034.72;;;9.03;87.96
58622;BME280;44389;51.578;5.456;2022-12-29T08:20:33;100039.13;;;9.09;87.46
58622;BME280;44389;51.578;5.456;2022-12-29T08:22:58;100035.78;;;9.13;87.66
58622;BME280;44389;51.578;5.456;2022-12-29T08:25:23;100033.34;;;9.17;86.73
58622;BME280;44389;51.578;5.456;2022-12-29T08:27:49;100039.34;;;9.18;85.42
58622;BME280;44389;51.578;5.456;2022-12-29T08:30:14;100035.13;;;9.21;84.47
58622;BME280;44389;51.578;5.456;2022-12-29T08:32:40;100036.06;;;9.23;84.53
58622;BME280;44389;51.578;5.456;2022-12-29T08:35:06;100037.78;;;9.25;84.30
58622;BME280;44389;51.578;5.456;2022-12-29T08:37:32;100031.78;;;9.26;84.15
58622;BME280;44389;51.578;5.456;2022-12-29T08:39:57;100036.94;;;9.26;83.63
58622;BME280;44389;51.578;5.456;2022-12-29T08:42:25;100032.69;;;9.26;83.72
58622;BME280;44389;51.578;5.456;2022-12-29T08:44:56;100030.19;;;9.31;83.00
58622;BME280;44389;51.578;5.456;2022-12-29T08:47:21;100028.47;;;9.30;83.71
58622;BME280;44389;51.578;5.456;2022-12-29T08:49:46;100030.25;;;9.32;83.59
58622;BME280;44389;51.578;5.456;2022-12-29T08:52:11;100037.16;;;9.35;83.39
58622;BME280;44389;51.578;5.456;2022-12-29T08:54:37;100032.06;;;9.38;82.67
58622;BME280;44389;51.578;5.456;2022-12-29T08:57:02;100033.00;;;9.42;82.52
58622;BME280;44389;51.578;5.456;2022-12-29T08:59:27;100020.16;;;9.43;82.35
58622;BME280;44389;51.578;5.456;2022-12-29T09:01:53;100039.91;;;9.44;82.58
58622;BME280;44389;51.578;5.456;2022-12-29T09:04:18;100039.03;;;9.44;83.24
58622;BME280;44389;51.578;5.456;2022-12-29T09:06:44;100041.59;;;9.44;83.38
58622;BME280;44389;51.578;5.456;2022-12-29T09:09:10;100050.22;;;9.44;82.78
58622;BME280;44389;51.578;5.456;2022-12-29T09:11:36;100047.69;;;9.47;82.63
58622;BME280;44389;51.578;5.456;2022-12-29T09:14:01;100040.88;;;9.49;82.62
58622;BME280;44389;51.578;5.456;2022-12-29T09:16:26;100051.16;;;9.49;82.92
58622;BME280;44389;51.578;5.456;2022-12-29T09:18:52;100057.13;;;9.47;83.21
58622;BME280;44389;51.578;5.456;2022-12-29T09:21:17;100054.38;;;9.39;84.78
58622;BME280;44389;51.578;5.456;2022-12-29T09:23:42;100055.16;;;9.35;84.94
58622;BME280;44389;51.578;5.456;2022-12-29T09:26:08;100069.66;;;9.33;86.31
58622;BME280;44389;51.578;5.456;2022-12-29T09:28:34;100067.78;;;9.26;86.90
58622;BME280;44389;51.578;5.456;2022-12-29T09:31:00;100055.34;;;9.06;89.87
58622;BME280;44389;51.578;5.456;2022-12-29T09:33:26;100068.75;;;8.93;91.00
58622;BME280;44389;51.578;5.456;2022-12-29T09:35:53;100073.59;;;8.80;92.73
58622;BME280;44389;51.578;5.456;2022-12-29T09:38:20;100075.97;;;8.72;93.34
58622;BME280;44389;51.578;5.456;2022-12-29T09:40:50;100069.16;;;8.73;92.78
58622;BME280;44389;51.578;5.456;2022-12-29T09:46:25;100109.56;;;8.80;92.92
58622;BME280;44389;51.578;5.456;2022-12-29T09:49:16;100107.09;;;8.83;92.52
58622;BME280;44389;51.578;5.456;2022-12-29T09:51:48;100103.59;;;8.81;92.78
58622;BME280;44389;51.578;5.456;2022-12-29T09:54:24;100102.56;;;8.73;94.91
58622;BME280;44389;51.578;5.456;2022-12-29T09:56:55;100111.81;;;8.66;96.14
58622;BME280;44389;51.578;5.456;2022-12-29T09:59:26;100119.44;;;8.63;96.54
58622;BME280;44389;51.578;5.456;2022-12-29T10:01:59;100119.31;;;8.59;96.29
58622;BME280;44389;51.578;5.456;2022-12-29T10:04:31;100137.16;;;8.54;96.71
58622;BME280;44389;51.578;5.456;2022-12-29T10:10:22;100141.16;;;8.44;99.74
58622;BME280;44389;51.578;5.456;2022-12-29T10:13:00;100155.63;;;8.40;99.76
58622;BME280;44389;51.578;5.456;2022-12-29T10:15:35;100152.06;;;8.35;100.00
58622;BME280;44389;51.578;5.456;2022-12-29T10:18:29;100144.22;;;8.31;100.00
58622;BME280;44389;51.578;5.456;2022-12-29T10:23:39;100178.16;;;8.20;100.00
58622;BME280;44389;51.578;5.456;2022-12-29T10:26:11;100174.56;;;8.14;100.00
58622;BME280;44389;51.578;5.456;2022-12-29T10:28:43;100185.47;;;8.06;100.00
58622;BME280;44389;51.578;5.456;2022-12-29T10:31:24;100193.91;;;8.02;100.00
58622;BME280;44389;51.578;5.456;2022-12-29T10:34:03;100192.09;;;7.98;100.00
58622;BME280;44389;51.578;5.456;2022-12-29T10:36:37;100197.09;;;7.95;100.00
58622;BME280;44389;51.578;5.456;2022-12-29T10:39:30;100190.19;;;7.93;100.00
58622;BME280;44389;51.578;5.456;2022-12-29T10:42:10;100206.34;;;7.90;100.00
58622;BME280;44389;51.578;5.456;2022-12-29T10:44:38;100209.69;;;7.87;100.00
58622;BME280;44389;51.578;5.456;2022-12-29T10:47:10;100222.59;;;7.89;100.00
58622;BME280;44389;51.578;5.456;2022-12-29T10:49:40;100224.25;;;7.87;100.00
58622;BME280;44389;51.578;5.456;2022-12-29T10:52:06;100221.72;;;7.88;100.00
58622;BME280;44389;51.578;5.456;2022-12-29T10:54:39;100228.59;;;7.89;100.00
58622;BME280;44389;51.578;5.456;2022-12-29T10:57:12;100225.25;;;7.92;100.00
58622;BME280;44389;51.578;5.456;2022-12-29T10:59:41;100226.25;;;7.97;100.00
58622;BME280;44389;51.578;5.456;2022-12-29T11:05:00;100238.69;;;8.12;100.00
58622;BME280;44389;51.578;5.456;2022-12-29T11:07:28;100233.59;;;8.14;100.00
58622;BME280;44389;51.578;5.456;2022-12-29T11:09:55;100254.91;;;8.11;100.00
58622;BME280;44389;51.578;5.456;2022-12-29T11:12:25;100267.63;;;8.08;100.00
58622;BME280;44389;51.578;5.456;2022-12-29T11:17:46;100259.69;;;8.00;100.00
58622;BME280;44389;51.578;5.456;2022-12-29T11:22:53;100255.31;;;7.96;100.00
58622;BME280;44389;51.578;5.456;2022-12-29T11:25:18;100268.19;;;7.98;100.00
58622;BME280;44389;51.578;5.456;2022-12-29T11:27:55;100271.66;;;8.00;100.00
58622;BME280;44389;51.578;5.456;2022-12-29T11:30:26;100277.84;;;8.06;100.00
58622;BME280;44389;51.578;5.456;2022-12-29T11:32:54;100278.25;;;8.19;100.00
58622;BME280;44389;51.578;5.456;2022-12-29T11:35:32;100282.00;;;8.30;100.00
58622;BME280;44389;51.578;5.456;2022-12-29T11:37:58;100273.88;;;8.45;100.00
58622;BME280;44389;51.578;5.456;2022-12-29T11:40:24;100278.56;;;8.59;100.00
58622;BME280;44389;51.578;5.456;2022-12-29T11:42:53;100277.91;;;8.66;100.00
58622;BME280;44389;51.578;5.456;2022-12-29T11:45:22;100290.13;;;8.75;100.00
58622;BME280;44389;51.578;5.456;2022-12-29T11:50:55;100281.66;;;8.77;100.00
58622;BME280;44389;51.578;5.456;2022-12-29T11:53:26;100287.53;;;8.73;99.91
58622;BME280;44389;51.578;5.456;2022-12-29T11:55:55;100295.28;;;8.75;100.00
58622;BME280;44389;51.578;5.456;2022-12-29T11:58:29;100299.56;;;8.74;99.48
58622;BME280;44389;51.578;5.456;2022-12-29T12:00:55;100296.00;;;8.69;100.00
58622;BME280;44389;51.578;5.456;2022-12-29T12:03:24;100304.34;;;8.62;100.00
58622;BME280;44389;51.578;5.456;2022-12-29T12:06:02;100301.63;;;8.57;100.00
58622;BME280;44389;51.578;5.456;2022-12-29T12:08:39;100297.41;;;8.59;100.00
58622;BME280;44389;51.578;5.456;2022-12-29T12:11:10;100307.75;;;8.62;100.00
58622;BME280;44389;51.578;5.456;2022-12-29T12:16:40;100313.44;;;8.81;100.00
58622;BME280;44389;51.578;5.456;2022-12-29T12:19:15;100309.16;;;8.81;99.64
58622;BME280;44389;51.578;5.456;2022-12-29T12:21:50;100300.38;;;8.73;98.69
58622;BME280;44389;51.578;5.456;2022-12-29T12:24:28;100309.72;;;8.71;98.36
58622;BME280;44389;51.578;5.456;2022-12-29T12:27:19;100299.56;;;8.74;98.63
58622;BME280;44389;51.578;5.456;2022-12-29T12:32:38;100314.13;;;8.75;97.26
58622;BME280;44389;51.578;5.456;2022-12-29T12:35:39;100311.91;;;8.87;96.57
58622;BME280;44389;51.578;5.456;2022-12-29T12:38:34;100308.66;;;8.95;95.81
58622;BME280;44389;51.578;5.456;2022-12-29T12:46:46;100309.41;;;9.22;93.95
58622;BME280;44389;51.578;5.456;2022-12-29T12:49:35;100304.50;;;9.32;91.59
58622;BME280;44389;51.578;5.456;2022-12-29T12:58:16;100315.34;;;9.53;88.03
58622;BME280;44389;51.578;5.456;2022-12-29T13:01:20;100322.25;;;9.54;87.76
58622;BME280;44389;51.578;5.456;2022-12-29T13:04:05;100319.53;;;9.50;87.28
58622;BME280;44389;51.578;5.456;2022-12-29T13:06:49;100324.50;;;9.42;87.60
58622;BME280;44389;51.578;5.456;2022-12-29T13:09:37;100329.59;;;9.41;87.20
58622;BME280;44389;51.578;5.456;2022-12-29T13:17:31;100331.69;;;8.90;94.52
58622;BME280;44389;51.578;5.456;2022-12-29T13:25:41;100344.09;;;8.18;100.00
58622;BME280;44389;51.578;5.456;2022-12-29T13:30:56;100366.94;;;7.83;100.00
58622;BME280;44389;51.578;5.456;2022-12-29T13:36:54;100356.28;;;7.71;100.00
58622;BME280;44389;51.578;5.456;2022-12-29T13:39:32;100366.34;;;7.65;100.00
58622;BME280;44389;51.578;5.456;2022-12-29T13:41:59;100356.06;;;7.65;100.00
58622;BME280;44389;51.578;5.456;2022-12-29T13:44:34;100368.84;;;7.63;100.00
58622;BME280;44389;51.578;5.456;2022-12-29T13:47:06;100368.84;;;7.63;100.00
58622;BME280;44389;51.578;5.456;2022-12-29T13:49:37;100369.63;;;7.61;100.00
58622;BME280;44389;51.578;5.456;2022-12-29T13:52:34;100363.59;;;7.60;100.00
58622;BME280;44389;51.578;5.456;2022-12-29T13:58:09;100358.34;;;7.55;100.00
58622;BME280;44389;51.578;5.456;2022-12-29T14:00:53;100360.91;;;7.55;100.00
58622;BME280;44389;51.578;5.456;2022-12-29T14:06:16;100371.84;;;7.51;100.00
58622;BME280;44389;51.578;5.456;2022-12-29T14:08:44;100363.25;;;7.49;100.00
58622;BME280;44389;51.578;5.456;2022-12-29T14:11:10;100369.28;;;7.51;100.00
58622;BME280;44389;51.578;5.456;2022-12-29T14:13:43;100377.91;;;7.53;100.00
58622;BME280;44389;51.578;5.456;2022-12-29T14:16:31;100376.28;;;7.55;100.00
58622;BME280;44389;51.578;5.456;2022-12-29T14:19:03;100386.63;;;7.58;100.00
58622;BME280;44389;51.578;5.456;2022-12-29T14:21:29;100371.81;;;7.50;100.00
58622;BME280;44389;51.578;5.456;2022-12-29T14:25:00;100376.06;;;7.49;100.00
58622;BME280;44389;51.578;5.456;2022-12-29T14:27:34;100374.22;;;7.45;100.00
58622;BME280;44389;51.578;5.456;2022-12-29T14:29:51;100383.63;;;7.46;100.00
58622;BME280;44389;51.578;5.456;2022-12-29T14:35:37;100379.44;;;7.48;100.00
58622;BME280;44389;51.578;5.456;2022-12-29T14:38:12;100384.56;;;7.48;100.00